メインページ
METAR-TAF:

METAR-TAF

空港 :

キング・アブドゥルアズィーズ国際空港

ジッダ, サウジアラビア

緯度: 21-42N, 経度: 039-11E, 海抜: 15m

現時点の気象観測

当レポートは23分前の17:00(UTC)に作成
の風 12kt
気温 27°C
湿度 70%
気圧 1017 hPa
視程10km以上
高度4000ftの雲はほとんどない

METAR: OEJN 171700Z 35012KT 9999 FEW040 27/21 Q1017 NOSIG

時間: 20:23 (17:23 UTC)

予報

当レポートは6時間23分前の11:00(UTC)に作成
予報は17日の 12時(UTC)から 18日の 18時(UTC)まで有効
西/北西の風 14kt
視程10km以上
高度4000ftの雲はほとんどない
高度10000ftの雲は散在している
17日の 18時(UTC)から 17日の 20時(UTC)まで徐々に
北/北東の風 10kt
17日の 12時(UTC)から 17日の 20時(UTC)まで一時的に
視程: 7000m
高度3500ftの雲はほとんどない, 積乱雲.
高度4000ftの雲は散在している
激しい雷雨

TAF: OEJN 171100Z 1712/1818 30014KT 9999 FEW040 SCT100 BECMG 1718/1720 02010KT TEMPO 1712/1720 7000 TS FEW035CB SCT040

4,000以上の空港の気象観測と天気予報(METAR報とTAF報)

利用可能な観測所は地図上に黄色い丸と赤い丸で示す。

丸の上にカーソルを重ねると観測所名を参照できる。

次にクリックすると気象観測と天気予報を参照できる。

マップの切り替え:黒色「×」印の緑ボタンをクリックして拡大、「-」印の緑ボタンをクリックして縮小、緑色の三角印をクリックして隣りの地図に切り替え


METAR-TAF: